^^
Grace C. Lehan Memorial Weather Station Historical Data
Daily Summary for June 4, 2021 Units:  Metric    English   Both
Daily Weekly Monthly Yearly
  High: Low: Average:
Temperature: 5.9 °C -2.2 °C 1.7 °C
Dew Point: 1.6 °C -5.9 °C -2.4 °C
Humidity: 86.7% 63.6% 75%
Wind Speed: 4.3km/h 0km/h 0.2km/h
Wind Gust: 11.3km/h - -
Wind- - NW
Pressure: 1020.9 hPa 1016.5 hPa -
Precipitation: 0 mm    
 
 
Tabular Data for June 4, 2021
Time Temperature Dew Point Pressure Wind Wind Speed Wind Gust Humidity Rainfall Rate (Hourly) solar
00:04 -0.8 °C -5.9 °C 1017.5 hPa Calm     68% 0 mm 0 W/m2
00:09 -0.8 °C -5.9 °C 1017.5 hPa Calm     68% 0 mm 0 W/m2
00:14 -0.8 °C -5.8 °C 1017.2 hPa Calm     68.5% 0 mm 0 W/m2
00:19 -0.8 °C -5.8 °C 1017.2 hPa Calm     68.9% 0 mm 0 W/m2
00:24 -0.8 °C -5.8 °C 1017.2 hPa Calm     68.4% 0 mm 0 W/m2
00:29 -0.8 °C -5.7 °C 1017.2 hPa Calm     69.1% 0 mm 0 W/m2
00:34 -0.8 °C -5.7 °C 1017.2 hPa Calm     69.2% 0 mm 0 W/m2
00:39 -0.8 °C -5.7 °C 1017.2 hPa Calm     69.2% 0 mm 0 W/m2
00:44 -0.8 °C -5.8 °C 1017.2 hPa Calm     69% 0 mm 0 W/m2
00:49 -0.8 °C -5.7 °C 1017.2 hPa Calm     69.1% 0 mm 0 W/m2
00:54 -0.8 °C -5.7 °C 1017.2 hPa Calm     69% 0 mm 0 W/m2
00:59 -0.7 °C -5.7 °C 1017.2 hPa Calm     69% 0 mm 0 W/m2
01:04 -0.7 °C -5.7 °C 1016.8 hPa Calm     69% 0 mm 0 W/m2
01:09 -0.9 °C -5.8 °C 1017.2 hPa Calm     69.2% 0 mm 0 W/m2
01:14 -1 °C -5.8 °C 1017.2 hPa Calm     70% 0 mm 0 W/m2
01:19 -1.2 °C -5.8 °C 1017.2 hPa Calm     70.9% 0 mm 0 W/m2
01:24 -1.3 °C -5.7 °C 1017.2 hPa Calm     71.8% 0 mm 0 W/m2
01:29 -1.4 °C -5.8 °C 1017.2 hPa Calm     72% 0 mm 0 W/m2
01:34 -1.5 °C -5.8 °C 1017.2 hPa Calm     72.3% 0 mm 0 W/m2
01:39 -1.6 °C -5.8 °C 1017.5 hPa Calm     73% 0 mm 0 W/m2
01:44 -1.6 °C -5.8 °C 1017.5 hPa Calm     73% 0 mm 0 W/m2
01:49 -1.7 °C -5.8 °C 1017.5 hPa Calm     73.5% 0 mm 0 W/m2
01:54 -1.7 °C -5.7 °C 1017.5 hPa Calm     74% 0 mm 0 W/m2
01:59 -1.7 °C -5.7 °C 1017.5 hPa Calm     74% 0 mm 0 W/m2
02:04 -1.7 °C -5.7 °C 1017.5 hPa Calm     74% 0 mm 0 W/m2
02:09 -1.7 °C -5.7 °C 1017.5 hPa Calm     74% 0 mm 0 W/m2
02:14 -1.7 °C -5.7 °C 1017.5 hPa Calm     74% 0 mm 0 W/m2
02:19 -1.7 °C -5.6 °C 1017.5 hPa Calm     74.6% 0 mm 0 W/m2
02:24 -1.7 °C -5.6 °C 1017.8 hPa Calm     75% 0 mm 0 W/m2
02:29 -1.7 °C -5.4 °C 1017.8 hPa Calm     75.4% 0 mm 0 W/m2
02:34 -1.7 °C -5.3 °C 1017.8 hPa Calm     76% 0 mm 0 W/m2
02:39 -1.7 °C -5.3 °C 1017.8 hPa Calm     76% 0 mm 0 W/m2
02:44 -1.7 °C -5.3 °C 1017.8 hPa Calm     76.1% 0 mm 0 W/m2
02:49 -1.7 °C -5.2 °C 1017.8 hPa Calm     77% 0 mm 0 W/m2
02:54 -1.6 °C -5.1 °C 1018.2 hPa Calm     77% 0 mm 0 W/m2
02:59 -1.6 °C -4.9 °C 1018.2 hPa Calm     77.9% 0 mm 0 W/m2
03:04 -1.6 °C -4.9 °C 1018.2 hPa Calm     78% 0 mm 0 W/m2
03:09 -1.6 °C -4.7 °C 1017.8 hPa Calm     78.8% 0 mm 0 W/m2
03:14 -1.5 °C -4.7 °C 1017.8 hPa Calm     79% 0 mm 0 W/m2
03:19 -1.4 °C -4.7 °C 1017.8 hPa Calm     78.8% 0 mm 0 W/m2
03:24 -1.4 °C -4.8 °C 1017.8 hPa Calm     77.7% 0 mm 0 W/m2
03:29 -1.4 °C -4.9 °C 1017.8 hPa Calm     77% 0 mm 0 W/m2
03:34 -1.3 °C -4.9 °C 1018.2 hPa Calm     76.5% 0 mm 0 W/m2
03:39 -1.3 °C -4.9 °C 1017.8 hPa Calm     76% 0 mm 0 W/m2
03:44 -1.2 °C -5.1 °C 1017.8 hPa Calm     75.2% 0 mm 0 W/m2
03:49 -1.2 °C -5 °C 1018.2 hPa Calm     75% 0 mm 0 W/m2
03:54 -1.2 °C -5 °C 1018.2 hPa Calm     75% 0 mm 0 W/m2
03:59 -1.2 °C -5 °C 1017.8 hPa Calm     75% 0 mm 0 W/m2
04:04 -1.2 °C -5.1 °C 1018.2 hPa Calm     74.5% 0 mm 0 W/m2
04:09 -1.2 °C -5.2 °C 1018.2 hPa Calm     74.2% 0 mm 0 W/m2
04:14 -1.2 °C -5.2 °C 1017.8 hPa Calm     74.2% 0 mm 0 W/m2
04:19 -1.3 °C -5.1 °C 1017.8 hPa Calm     75% 0 mm 0 W/m2
04:24 -1.3 °C -5.1 °C 1017.8 hPa Calm     75% 0 mm 0 W/m2
04:29 -1.3 °C -5.2 °C 1018.2 hPa Calm     75% 0 mm 0 W/m2
04:34 -1.3 °C -5.1 °C 1017.8 hPa Calm     75.7% 0 mm 0 W/m2
04:39 -1.4 °C -5.1 °C 1018.2 hPa Calm     76% 0 mm 0 W/m2
04:44 -1.5 °C -5.2 °C 1017.8 hPa Calm     76% 0 mm 0 W/m2
04:49 -1.6 °C -5.1 °C 1017.8 hPa Calm     77% 0 mm 0 W/m2
04:54 -1.6 °C -5.1 °C 1017.8 hPa Calm     77% 0 mm 0 W/m2
04:59 -1.7 °C -5.1 °C 1017.8 hPa Calm     77.2% 0 mm 0 W/m2
05:04 -1.7 °C -5.2 °C 1018.2 hPa Calm     77% 0 mm 0 W/m2
05:09 -1.7 °C -5.1 °C 1018.2 hPa Calm     77.5% 0 mm 0 W/m2
05:14 -1.7 °C -5.2 °C 1017.8 hPa Calm     77% 0 mm 0 W/m2
05:19 -1.8 °C -5.2 °C 1017.8 hPa Calm     77.7% 0 mm 0 W/m2
05:24 -1.8 °C -5.1 °C 1017.8 hPa Calm     78% 0 mm 0 W/m2
05:29 -1.9 °C -5.2 °C 1017.8 hPa Calm     78% 0 mm 0 W/m2
05:34 -1.9 °C -5.2 °C 1018.2 hPa Calm     78.6% 0 mm 0 W/m2
05:39 -2 °C -5.2 °C 1018.2 hPa Calm     79% 0 mm 0 W/m2
05:44 -2.1 °C -5.2 °C 1018.2 hPa Calm     79% 0 mm 0 W/m2
05:49 -2.2 °C -5.3 °C 1018.2 hPa Calm     79.2% 0 mm 0 W/m2
05:54 -2.2 °C -5.2 °C 1018.2 hPa Calm     80% 0 mm 0 W/m2
05:59 -2.2 °C -5.2 °C 1018.2 hPa Calm     80% 0 mm 0 W/m2
06:04 -2.2 °C -5.1 °C 1018.5 hPa Calm     80% 0 mm 0 W/m2
06:09 -2.2 °C -5.2 °C 1018.2 hPa Calm     80% 0 mm 0 W/m2
06:14 -2.2 °C -5.1 °C 1018.2 hPa Calm     80% 0 mm 0 W/m2
06:19 -2.1 °C -5.1 °C 1018.5 hPa Calm     80% 0 mm 0 W/m2
06:22 -2.1 °C -5.1 °C 1018.5 hPa Calm     80% 0 mm 0 W/m2
06:29 -2.1 °C -5.1 °C 1018.5 hPa Calm     80% 0 mm 0 W/m2
06:34 -2.2 °C -5.1 °C 1018.5 hPa Calm     80% 0 mm 0 W/m2
06:39 -2.2 °C -5.2 °C 1018.5 hPa Calm     80% 0 mm 0 W/m2
06:44 -2.2 °C -5 °C 1018.2 hPa Calm     80.7% 0 mm 0 W/m2
06:49 -2.2 °C -5 °C 1018.2 hPa Calm     81% 0 mm 0 W/m2
06:54 -2.2 °C -5 °C 1018.5 hPa Calm     81% 0 mm 0 W/m2
06:59 -2.2 °C -5.1 °C 1018.5 hPa Calm     81% 0 mm 0 W/m2
07:04 -2.2 °C -5 °C 1018.8 hPa Calm     81% 0 mm 0 W/m2
07:09 -2.2 °C -5 °C 1018.8 hPa Calm     81% 0 mm 12 W/m2
07:14 -2.2 °C -5 °C 1018.5 hPa Calm     81% 0 mm 12 W/m2
07:19 -2.2 °C -5 °C 1018.8 hPa Calm     81% 0 mm 12 W/m2
07:24 -2.1 °C -5 °C 1018.8 hPa Calm     80.8% 0 mm 16 W/m2
07:29 -2.1 °C -4.8 °C 1018.8 hPa Calm     81% 0 mm 16 W/m2
07:34 -1.9 °C -4.8 °C 1019.2 hPa Calm     81% 0 mm 23 W/m2
07:39 -1.9 °C -4.7 °C 1019.2 hPa Calm     81% 0 mm 26 W/m2
07:44 -1.8 °C -4.6 °C 1019.2 hPa NW 0.2 km/h 1.6 km/h 81% 0 mm 30 W/m2
07:49 -1.7 °C -4.5 °C 1019.2 hPa Calm   1.6 km/h 81% 0 mm 37 W/m2
07:54 -1.6 °C -4.5 °C 1019.2 hPa Calm   1.6 km/h 80.4% 0 mm 37 W/m2
07:58 -1.4 °C -4.4 °C 1019.2 hPa Calm   1.6 km/h 80% 0 mm 32 W/m2
08:09 -1.2 °C -4.2 °C 1019.5 hPa Calm     80% 0 mm 33 W/m2
08:14 -1 °C -4.2 °C 1019.5 hPa Calm     79% 0 mm 42 W/m2
08:19 -0.9 °C -4.1 °C 1019.2 hPa Calm     79% 0 mm 47 W/m2
08:24 -0.7 °C -3.9 °C 1019.2 hPa Calm     79% 0 mm 47 W/m2
08:29 -0.6 °C -3.9 °C 1019.2 hPa Calm     78.2% 0 mm 51 W/m2
08:34 -0.5 °C -4 °C 1019.2 hPa Calm     77% 0 mm 56 W/m2
08:39 -0.3 °C -3.9 °C 1019.5 hPa Calm     77% 0 mm 56 W/m2
08:44 -0.2 °C -3.8 °C 1019.5 hPa Calm     77% 0 mm 56 W/m2
08:49 -0.1 °C -3.7 °C 1019.5 hPa Calm     76.8% 0 mm 58 W/m2
08:54 0.1 °C -3.7 °C 1019.5 hPa Calm     76.2% 0 mm 63 W/m2
08:59 0.2 °C -3.7 °C 1019.5 hPa Calm     75% 0 mm 67 W/m2
09:04 0.3 °C -3.6 °C 1019.5 hPa Calm     75% 0 mm 70 W/m2
09:09 0.4 °C -3.5 °C 1019.5 hPa Calm     75% 0 mm 77 W/m2
09:14 0.5 °C -3.6 °C 1019.5 hPa Calm     74.3% 0 mm 91 W/m2
09:19 0.6 °C -3.6 °C 1019.5 hPa Calm     73.7% 0 mm 102 W/m2
09:24 0.7 °C -3.6 °C 1019.5 hPa Calm     72.7% 0 mm 105 W/m2
09:29 0.9 °C -3.4 °C 1019.5 hPa Calm     73% 0 mm 104 W/m2
09:34 1 °C -3.3 °C 1019.5 hPa Calm   1.6 km/h 72.8% 0 mm 93 W/m2
09:39 1.1 °C -3.3 °C 1019.5 hPa NW 0.3 km/h 1.6 km/h 72% 0 mm 97 W/m2
09:44 1.2 °C -3.3 °C 1019.5 hPa NW 0.2 km/h 3.2 km/h 72% 0 mm 105 W/m2
09:49 1.3 °C -3.2 °C 1019.5 hPa Calm   3.2 km/h 72.2% 0 mm 107 W/m2
09:54 1.4 °C -3.1 °C 1019.5 hPa NW 0.3 km/h 4.8 km/h 72% 0 mm 111 W/m2
09:59 1.4 °C -3.1 °C 1019.5 hPa Calm   4.8 km/h 72% 0 mm 109 W/m2
10:04 1.4 °C -3.1 °C 1019.5 hPa Calm   4.8 km/h 72% 0 mm 114 W/m2
10:09 1.5 °C -2.7 °C 1019.5 hPa NW 0.2 km/h 3.2 km/h 73.5% 0 mm 113 W/m2
10:14 1.6 °C -2.9 °C 1019.5 hPa NW 0.5 km/h 4.8 km/h 72% 0 mm 120 W/m2
10:19 1.7 °C -3 °C 1019.5 hPa NW 0.2 km/h 4.8 km/h 71.1% 0 mm 116 W/m2
10:24 1.7 °C -2.9 °C 1019.5 hPa Calm   4.8 km/h 71.2% 0 mm 121 W/m2
10:29 1.8 °C -2.8 °C 1019.2 hPa Calm   4.8 km/h 71.5% 0 mm 125 W/m2
10:34 1.9 °C -2.7 °C 1019.5 hPa Calm   4.8 km/h 71% 0 mm 123 W/m2
10:39 2.1 °C -2.8 °C 1019.5 hPa Calm     70.4% 0 mm 120 W/m2
10:44 2.2 °C -2.7 °C 1019.2 hPa Calm     70% 0 mm 144 W/m2
10:49 2.3 °C -2.7 °C 1019.2 hPa Calm     70% 0 mm 146 W/m2
10:54 2.3 °C -2.6 °C 1019.2 hPa Calm     69.8% 0 mm 141 W/m2
10:59 2.5 °C -2.6 °C 1019.2 hPa Calm     69.2% 0 mm 139 W/m2
11:04 2.6 °C -2.4 °C 1019.2 hPa Calm     69.3% 0 mm 135 W/m2
11:09 2.8 °C -2.2 °C 1018.8 hPa Calm     69.7% 0 mm 134 W/m2
11:14 2.9 °C -2.1 °C 1018.8 hPa Calm     69.4% 0 mm 134 W/m2
11:19 3.1 °C -1.8 °C 1018.8 hPa Calm     70% 0 mm 142 W/m2
11:24 3.3 °C -1.7 °C 1018.8 hPa Calm     69.6% 0 mm 142 W/m2
11:29 3.5 °C -1.7 °C 1018.8 hPa Calm     68.8% 0 mm 135 W/m2
11:34 3.7 °C -1.7 °C 1018.8 hPa Calm   3.2 km/h 68% 0 mm 146 W/m2
11:39 3.8 °C -1.6 °C 1018.5 hPa Calm   3.2 km/h 68% 0 mm 146 W/m2
11:44 3.9 °C -1.4 °C 1018.5 hPa NW 0.5 km/h 4.8 km/h 68% 0 mm 144 W/m2
11:49 4.1 °C -1.3 °C 1018.5 hPa Calm   4.8 km/h 68% 0 mm 144 W/m2
11:54 4.2 °C -1.2 °C 1018.5 hPa Calm   4.8 km/h 68% 0 mm 135 W/m2
11:59 4.3 °C -1.2 °C 1018.5 hPa Calm   4.8 km/h 67.5% 0 mm 134 W/m2
12:09 4.4 °C -1.2 °C 1018.5 hPa Calm     66.9% 0 mm 139 W/m2
12:14 4.5 °C -1.1 °C 1018.5 hPa NW 0.2 km/h 3.2 km/h 67% 0 mm 141 W/m2
12:19 4.6 °C -1.2 °C 1018.2 hPa Calm   3.2 km/h 66.2% 0 mm 139 W/m2
12:24 4.6 °C -1.3 °C 1018.2 hPa NW 0.8 km/h 4.8 km/h 65.5% 0 mm 139 W/m2
12:29 4.7 °C -1.2 °C 1018.2 hPa NW 0.2 km/h 4.8 km/h 65.8% 0 mm 139 W/m2
12:34 4.7 °C -1.1 °C 1018.2 hPa NW 0.8 km/h 4.8 km/h 65.9% 0 mm 137 W/m2
12:39 4.8 °C -1.2 °C 1018.2 hPa Calm   4.8 km/h 65.4% 0 mm 135 W/m2
12:44 4.8 °C -1.1 °C 1017.8 hPa Calm   4.8 km/h 65.5% 0 mm 134 W/m2
12:49 4.8 °C -1.1 °C 1017.5 hPa Calm   4.8 km/h 65.5% 0 mm 134 W/m2
12:54 4.9 °C -1.1 °C 1017.5 hPa Calm   4.8 km/h 65.5% 0 mm 132 W/m2
12:59 4.8 °C -1.3 °C 1017.8 hPa Calm   4.8 km/h 64.1% 0 mm 132 W/m2
13:04 4.8 °C -1.2 °C 1017.8 hPa Calm   4.8 km/h 65% 0 mm 121 W/m2
13:09 4.9 °C -1.2 °C 1017.8 hPa Calm     64.8% 0 mm 120 W/m2
13:14 4.9 °C -1.2 °C 1017.8 hPa Calm     64.7% 0 mm 116 W/m2
13:19 4.9 °C -1.3 °C 1017.8 hPa Calm     64.3% 0 mm 118 W/m2
13:24 4.9 °C -1.1 °C 1017.8 hPa Calm     64.9% 0 mm 123 W/m2
13:29 4.9 °C -1.2 °C 1017.8 hPa Calm     64.2% 0 mm 113 W/m2
13:34 4.9 °C -1.3 °C 1017.5 hPa Calm     64% 0 mm 111 W/m2
13:39 5 °C -1.3 °C 1017.5 hPa Calm     64% 0 mm 123 W/m2
13:44 5 °C -1.2 °C 1017.2 hPa NW 0.3 km/h 3.2 km/h 64.3% 0 mm 137 W/m2
13:49 5 °C -1.2 °C 1017.2 hPa NW 0.2 km/h 3.2 km/h 64.3% 0 mm 155 W/m2
13:54 5.1 °C -1.1 °C 1017.2 hPa Calm   3.2 km/h 64.5% 0 mm 156 W/m2
13:59 5.2 °C -0.9 °C 1017.2 hPa Calm   3.2 km/h 64.8% 0 mm 155 W/m2
14:04 5.3 °C -0.9 °C 1016.8 hPa Calm   3.2 km/h 64.6% 0 mm 155 W/m2
14:09 5.3 °C -0.9 °C 1016.8 hPa NW 0.2 km/h 3.2 km/h 64.2% 0 mm 153 W/m2
14:14 5.4 °C -0.9 °C 1016.8 hPa Calm   3.2 km/h 64% 0 mm 146 W/m2
14:19 5.4 °C -0.8 °C 1016.8 hPa Calm   3.2 km/h 64% 0 mm 135 W/m2
14:24 5.5 °C -0.8 °C 1016.8 hPa Calm   3.2 km/h 64% 0 mm 102 W/m2
14:29 5.6 °C -0.8 °C 1016.5 hPa Calm   3.2 km/h 63.6% 0 mm 91 W/m2
14:34 5.6 °C -0.8 °C 1016.8 hPa Calm   3.2 km/h 63.6% 0 mm 100 W/m2
14:39 5.6 °C -0.7 °C 1016.8 hPa Calm     64% 0 mm 107 W/m2
14:44 5.6 °C -0.7 °C 1016.8 hPa Calm     63.9% 0 mm 90 W/m2
14:49 5.6 °C -0.7 °C 1016.8 hPa Calm     63.8% 0 mm 79 W/m2
14:54 5.6 °C -0.7 °C 1016.8 hPa Calm     64% 0 mm 79 W/m2
14:59 5.7 °C -0.6 °C 1016.8 hPa Calm     64% 0 mm 67 W/m2
15:04 5.7 °C -0.7 °C 1016.8 hPa Calm     63.8% 0 mm 67 W/m2
15:09 5.7 °C -0.7 °C 1016.8 hPa Calm     63.8% 0 mm 79 W/m2
15:14 5.7 °C -0.6 °C 1016.8 hPa Calm     64.1% 0 mm 77 W/m2
15:19 5.7 °C -0.4 °C 1016.8 hPa Calm     64.6% 0 mm 56 W/m2
15:24 5.8 °C 0 °C 1016.8 hPa Calm     66.4% 0 mm 49 W/m2
15:29 5.9 °C 0.3 °C 1016.8 hPa Calm     67.3% 0 mm 44 W/m2
15:34 5.9 °C 0 °C 1016.8 hPa Calm     65.5% 0 mm 37 W/m2
15:39 5.9 °C 0.3 °C 1016.8 hPa Calm     66.9% 0 mm 32 W/m2
15:44 5.9 °C -0.1 °C 1016.8 hPa Calm     65.2% 0 mm 28 W/m2
15:49 5.8 °C -0.3 °C 1016.8 hPa Calm     64.5% 0 mm 23 W/m2
15:54 5.8 °C -0.3 °C 1016.8 hPa Calm     65% 0 mm 16 W/m2
15:59 5.7 °C -0.4 °C 1017.2 hPa Calm     65% 0 mm 11 W/m2
16:00 5.7 °C -0.4 °C 1017.2 hPa Calm     65% 0 mm 7 W/m2
16:09 5.5 °C -0.6 °C 1017.5 hPa Calm     65% 0 mm 5 W/m2
16:14 5.4 °C -0.4 °C 1017.5 hPa Calm     65.8% 0 mm 5 W/m2
16:19 5.3 °C -0.6 °C 1017.5 hPa Calm     66% 0 mm 0 W/m2
16:24 5.1 °C -0.6 °C 1017.5 hPa Calm     66.3% 0 mm 0 W/m2
16:29 5 °C -0.6 °C 1017.2 hPa Calm     67% 0 mm 0 W/m2
16:34 4.8 °C -0.8 °C 1017.2 hPa Calm     67% 0 mm 0 W/m2
16:39 4.6 °C -0.8 °C 1017.2 hPa Calm     67.9% 0 mm 0 W/m2
16:44 4.4 °C -0.8 °C 1017.2 hPa Calm     68.5% 0 mm 0 W/m2
16:49 4.3 °C -0.8 °C 1017.2 hPa Calm     69.3% 0 mm 0 W/m2
16:54 4.3 °C -0.4 °C 1017.2 hPa Calm     71.6% 0 mm 0 W/m2
16:59 4.3 °C -0.2 °C 1017.2 hPa Calm     72.4% 0 mm 0 W/m2
17:04 4.4 °C -0.1 °C 1017.2 hPa Calm     72.8% 0 mm 0 W/m2
17:09 4.3 °C -0.5 °C 1017.2 hPa Calm     70.9% 0 mm 0 W/m2
17:14 4.1 °C -0.7 °C 1017.2 hPa Calm     71.2% 0 mm 0 W/m2
17:19 3.8 °C -0.7 °C 1017.5 hPa Calm     72% 0 mm 0 W/m2
17:24 3.6 °C -0.9 °C 1017.5 hPa Calm   1.6 km/h 72% 0 mm 0 W/m2
17:29 3.4 °C -0.9 °C 1017.5 hPa Calm   1.6 km/h 73.1% 0 mm 0 W/m2
17:34 3.3 °C -0.9 °C 1017.5 hPa Calm   1.6 km/h 74.2% 0 mm 0 W/m2
17:39 3.1 °C -0.9 °C 1017.5 hPa Calm     74.7% 0 mm 0 W/m2
17:44 3.1 °C -0.8 °C 1017.5 hPa Calm     75.5% 0 mm 0 W/m2
17:49 2.9 °C -0.8 °C 1017.5 hPa Calm     76% 0 mm 0 W/m2
17:54 2.9 °C -0.9 °C 1017.5 hPa Calm     76% 0 mm 0 W/m2
17:59 2.9 °C -0.9 °C 1017.5 hPa Calm     76% 0 mm 0 W/m2
18:04 3 °C -0.8 °C 1017.5 hPa Calm     76% 0 mm 0 W/m2
18:09 3.1 °C -0.7 °C 1017.5 hPa Calm     75.9% 0 mm 0 W/m2
18:14 3.2 °C -0.8 °C 1017.5 hPa Calm     75% 0 mm 0 W/m2
18:19 3.2 °C -0.8 °C 1017.2 hPa Calm     75% 0 mm 0 W/m2
18:24 3.2 °C -0.8 °C 1017.2 hPa Calm     75% 0 mm 0 W/m2
18:29 3.2 °C -0.8 °C 1017.2 hPa Calm     75% 0 mm 0 W/m2
18:34 3.1 °C -0.9 °C 1017.2 hPa Calm     75% 0 mm 0 W/m2
18:39 3 °C -1 °C 1017.2 hPa Calm     75% 0 mm 0 W/m2
18:44 2.8 °C -1 °C 1017.5 hPa Calm     75.7% 0 mm 0 W/m2
18:49 2.8 °C -0.8 °C 1017.5 hPa Calm     77% 0 mm 0 W/m2
18:54 2.8 °C -0.8 °C 1017.5 hPa Calm     77.4% 0 mm 0 W/m2
18:59 2.8 °C -0.7 °C 1017.5 hPa Calm     78% 0 mm 0 W/m2
19:04 2.8 °C -0.6 °C 1017.8 hPa Calm     78% 0 mm 0 W/m2
19:09 2.8 °C -0.7 °C 1017.8 hPa Calm     77.8% 0 mm 0 W/m2
19:14 2.8 °C -0.7 °C 1017.8 hPa Calm     78% 0 mm 0 W/m2
19:19 2.8 °C -0.6 °C 1017.8 hPa Calm     78% 0 mm 0 W/m2
19:24 2.9 °C -0.5 °C 1017.5 hPa Calm     78.6% 0 mm 0 W/m2
19:29 2.9 °C -0.3 °C 1017.5 hPa Calm     79% 0 mm 0 W/m2
19:34 3 °C -0.3 °C 1017.5 hPa Calm     79% 0 mm 0 W/m2
19:39 3.1 °C -0.1 °C 1017.5 hPa Calm     79.4% 0 mm 0 W/m2
19:44 3.2 °C -0.1 °C 1017.8 hPa Calm     79.4% 0 mm 0 W/m2
19:49 3.2 °C -0.1 °C 1017.5 hPa Calm     79% 0 mm 0 W/m2
19:54 3.2 °C 0 °C 1017.5 hPa Calm     79.3% 0 mm 0 W/m2
19:59 3.2 °C -0.1 °C 1017.8 hPa Calm     79% 0 mm 0 W/m2
20:00 3.2 °C -0.1 °C 1017.8 hPa Calm     79% 0 mm 0 W/m2
20:09 3.1 °C -0.1 °C 1017.5 hPa Calm     80% 0 mm 0 W/m2
20:14 3.1 °C 0 °C 1017.5 hPa Calm     80.3% 0 mm 0 W/m2
20:19 3.1 °C 0.1 °C 1017.8 hPa Calm     81% 0 mm 0 W/m2
20:24 3.1 °C 0.1 °C 1017.8 hPa Calm   3.2 km/h 81% 0 mm 0 W/m2
20:29 3.1 °C 0.2 °C 1018.2 hPa NW 0.8 km/h 3.2 km/h 81.4% 0 mm 0 W/m2
20:34 3.1 °C 0.3 °C 1018.2 hPa Calm   3.2 km/h 82% 0 mm 0 W/m2
20:39 3.2 °C 0.7 °C 1018.2 hPa NW 1 km/h 6.4 km/h 83.1% 0 mm 0 W/m2
20:44 3.4 °C 1 °C 1018.2 hPa WNW 1.6 km/h 6.4 km/h 84% 0 mm 0 W/m2
20:49 3.7 °C 1.2 °C 1017.8 hPa WNW 0.6 km/h 6.4 km/h 84% 0 mm 0 W/m2
20:54 3.8 °C 1.3 °C 1018.2 hPa WNW 1.8 km/h 6.4 km/h 83.7% 0 mm 0 W/m2
20:59 3.9 °C 1.4 °C 1018.2 hPa WNW 1.8 km/h 8 km/h 83.3% 0 mm 0 W/m2
21:04 4.1 °C 1.4 °C 1018.5 hPa West 1.4 km/h 8 km/h 83% 0 mm 0 W/m2
21:09 4.1 °C 1.5 °C 1018.5 hPa West 1.9 km/h 8 km/h 83% 0 mm 0 W/m2
21:14 4.2 °C 1.6 °C 1018.5 hPa West 1.1 km/h 8 km/h 83% 0 mm 0 W/m2
21:19 4.2 °C 1.6 °C 1018.5 hPa West 3.1 km/h 8 km/h 83% 0 mm 0 W/m2
21:24 4.1 °C 1.4 °C 1018.5 hPa WSW 2.4 km/h 8 km/h 82.4% 0 mm 0 W/m2
21:29 4.1 °C 1.3 °C 1018.5 hPa WSW 2.6 km/h 8 km/h 82% 0 mm 0 W/m2
21:34 4.1 °C 1.2 °C 1018.8 hPa WNW 2.9 km/h 9.7 km/h 82% 0 mm 0 W/m2
21:39 3.9 °C 1.2 °C 1019.2 hPa NW 3.4 km/h 9.7 km/h 82% 0 mm 0 W/m2
21:44 3.8 °C 1.1 °C 1019.2 hPa NNW 4.3 km/h 11.3 km/h 82.2% 0 mm 0 W/m2
21:49 3.7 °C 1.1 °C 1019.2 hPa NNW 2.3 km/h 11.3 km/h 83% 0 mm 0 W/m2
21:54 3.7 °C 0.9 °C 1019.5 hPa NW 0.5 km/h 11.3 km/h 82.5% 0 mm 0 W/m2
21:59 3.6 °C 0.8 °C 1019.5 hPa Calm   11.3 km/h 82% 0 mm 0 W/m2
22:04 3.5 °C 0.7 °C 1019.5 hPa Calm   11.3 km/h 82% 0 mm 0 W/m2
22:09 3.4 °C 0.7 °C 1019.9 hPa Calm     82% 0 mm 0 W/m2
22:14 3.3 °C 0.6 °C 1019.9 hPa Calm     82% 0 mm 0 W/m2
22:19 3.2 °C 0.4 °C 1019.9 hPa Calm     82% 0 mm 0 W/m2
22:24 3 °C 0.3 °C 1019.9 hPa Calm     82.3% 0 mm 0 W/m2
22:29 2.9 °C 0.3 °C 1019.9 hPa Calm     83% 0 mm 0 W/m2
22:34 2.8 °C 0.3 °C 1019.9 hPa Calm     83.7% 0 mm 0 W/m2
22:39 2.8 °C 0.3 °C 1019.9 hPa Calm     84% 0 mm 0 W/m2
22:44 2.7 °C 0.3 °C 1019.9 hPa Calm     84% 0 mm 0 W/m2
22:49 2.7 °C 0.3 °C 1019.9 hPa Calm     84% 0 mm 0 W/m2
22:54 2.7 °C 0.2 °C 1019.9 hPa Calm     84.1% 0 mm 0 W/m2
22:59 2.6 °C 0.1 °C 1019.9 hPa Calm     84% 0 mm 0 W/m2
23:00 2.5 °C 0.1 °C 1019.9 hPa Calm     84% 0 mm 0 W/m2
23:09 2.4 °C 0 °C 1019.9 hPa NW 0.3 km/h 3.2 km/h 84% 0 mm 0 W/m2
23:14 2.3 °C -0.1 °C 1019.9 hPa Calm   3.2 km/h 84% 0 mm 0 W/m2
23:19 2.2 °C -0.2 °C 1019.9 hPa Calm   3.2 km/h 84.3% 0 mm 0 W/m2
23:24 2.1 °C -0.2 °C 1019.9 hPa NW 0.2 km/h 3.2 km/h 85% 0 mm 0 W/m2
23:29 1.9 °C -0.3 °C 1020.2 hPa Calm   3.2 km/h 85% 0 mm 0 W/m2
23:34 1.8 °C -0.5 °C 1020.5 hPa NW 0.5 km/h 3.2 km/h 85% 0 mm 0 W/m2
23:39 1.6 °C -0.7 °C 1020.5 hPa Calm   3.2 km/h 85% 0 mm 0 W/m2
23:44 1.4 °C -0.8 °C 1020.5 hPa Calm   3.2 km/h 85.4% 0 mm 0 W/m2
23:49 1.3 °C -0.8 °C 1020.5 hPa Calm   3.2 km/h 86% 0 mm 0 W/m2
23:54 1.1 °C -0.9 °C 1020.5 hPa Calm   3.2 km/h 86.2% 0 mm 0 W/m2
23:59 1.1 °C -0.9 °C 1020.9 hPa Calm   3.2 km/h 86.7% 0 mm 0 W/m2
Hartford County Weather
Compliments of Weather Underground - 2 mb